sensor_id;sensor_type;location;lat;lon;timestamp;pressure;altitude;pressure_sealevel;temperature;humidity
5905;BME280;2978;42.012;24.880;2023-04-08T00:01:29;98967.00;;;9.87;58.13
5905;BME280;2978;42.012;24.880;2023-04-08T00:03:55;98971.75;;;9.96;58.11
5905;BME280;2978;42.012;24.880;2023-04-08T00:06:20;98967.72;;;10.09;58.07
5905;BME280;2978;42.012;24.880;2023-04-08T00:08:46;98979.88;;;10.18;57.42
5905;BME280;2978;42.012;24.880;2023-04-08T00:11:11;98971.94;;;10.22;56.27
5905;BME280;2978;42.012;24.880;2023-04-08T00:13:36;98982.13;;;10.31;56.79
5905;BME280;2978;42.012;24.880;2023-04-08T00:16:02;98983.75;;;10.27;55.78
5905;BME280;2978;42.012;24.880;2023-04-08T00:18:27;98986.50;;;10.27;54.67
5905;BME280;2978;42.012;24.880;2023-04-08T00:20:53;98980.41;;;10.20;55.27
5905;BME280;2978;42.012;24.880;2023-04-08T00:23:19;98983.22;;;10.25;56.47
5905;BME280;2978;42.012;24.880;2023-04-08T00:25:45;98972.81;;;10.37;56.49
5905;BME280;2978;42.012;24.880;2023-04-08T00:28:11;98983.31;;;10.55;56.31
5905;BME280;2978;42.012;24.880;2023-04-08T00:30:36;98986.91;;;10.61;56.77
5905;BME280;2978;42.012;24.880;2023-04-08T00:33:02;98988.88;;;10.70;57.04
5905;BME280;2978;42.012;24.880;2023-04-08T00:35:28;98981.44;;;10.71;57.79
5905;BME280;2978;42.012;24.880;2023-04-08T00:37:54;98986.91;;;10.61;58.79
5905;BME280;2978;42.012;24.880;2023-04-08T00:40:19;98993.75;;;10.53;59.52
5905;BME280;2978;42.012;24.880;2023-04-08T00:42:45;98997.88;;;10.51;57.82
5905;BME280;2978;42.012;24.880;2023-04-08T00:45:10;98989.94;;;10.59;58.49
5905;BME280;2978;42.012;24.880;2023-04-08T00:47:36;98994.91;;;10.72;59.01
5905;BME280;2978;42.012;24.880;2023-04-08T00:50:02;98990.53;;;10.76;59.53
5905;BME280;2978;42.012;24.880;2023-04-08T00:52:28;98989.38;;;10.52;62.83
5905;BME280;2978;42.012;24.880;2023-04-08T00:54:54;98995.88;;;10.36;64.48
5905;BME280;2978;42.012;24.880;2023-04-08T00:57:20;98987.88;;;10.30;65.26
5905;BME280;2978;42.012;24.880;2023-04-08T00:59:45;98994.25;;;10.35;65.75
5905;BME280;2978;42.012;24.880;2023-04-08T01:02:38;98999.69;;;10.25;66.84
5905;BME280;2978;42.012;24.880;2023-04-08T01:05:06;98998.84;;;10.25;67.14
5905;BME280;2978;42.012;24.880;2023-04-08T01:07:36;98994.44;;;10.23;67.29
5905;BME280;2978;42.012;24.880;2023-04-08T01:12:39;99014.22;;;9.84;69.70
5905;BME280;2978;42.012;24.880;2023-04-08T01:15:07;99014.41;;;9.67;70.92
5905;BME280;2978;42.012;24.880;2023-04-08T01:17:34;99013.69;;;9.50;72.51
5905;BME280;2978;42.012;24.880;2023-04-08T01:20:02;99016.59;;;9.39;73.61
5905;BME280;2978;42.012;24.880;2023-04-08T01:22:40;99018.53;;;9.38;73.94
5905;BME280;2978;42.012;24.880;2023-04-08T01:25:14;99012.72;;;9.35;74.30
5905;BME280;2978;42.012;24.880;2023-04-08T01:27:42;99016.34;;;9.40;74.48
5905;BME280;2978;42.012;24.880;2023-04-08T01:30:08;99012.50;;;9.36;74.84
5905;BME280;2978;42.012;24.880;2023-04-08T01:32:35;99001.22;;;9.33;74.65
5905;BME280;2978;42.012;24.880;2023-04-08T01:35:02;99006.69;;;9.33;75.03
5905;BME280;2978;42.012;24.880;2023-04-08T01:37:29;98997.09;;;9.35;75.14
5905;BME280;2978;42.012;24.880;2023-04-08T01:39:57;99006.63;;;9.28;75.63
5905;BME280;2978;42.012;24.880;2023-04-08T01:42:24;98986.91;;;9.31;75.65
5905;BME280;2978;42.012;24.880;2023-04-08T01:44:56;99004.25;;;9.36;76.12
5905;BME280;2978;42.012;24.880;2023-04-08T01:47:23;98998.50;;;9.38;75.55
5905;BME280;2978;42.012;24.880;2023-04-08T01:49:51;98988.75;;;9.20;75.89
5905;BME280;2978;42.012;24.880;2023-04-08T01:52:19;99002.31;;;9.37;76.07
5905;BME280;2978;42.012;24.880;2023-04-08T01:54:45;99005.22;;;9.52;75.52
5905;BME280;2978;42.012;24.880;2023-04-08T01:57:14;99008.13;;;9.40;75.30
5905;BME280;2978;42.012;24.880;2023-04-08T01:59:41;99018.16;;;9.30;75.75
5905;BME280;2978;42.012;24.880;2023-04-08T02:02:08;99020.16;;;9.34;75.91
5905;BME280;2978;42.012;24.880;2023-04-08T02:04:34;99016.19;;;9.52;75.59
5905;BME280;2978;42.012;24.880;2023-04-08T02:07:01;99011.53;;;9.57;75.24
5905;BME280;2978;42.012;24.880;2023-04-08T02:09:27;99026.72;;;9.65;75.33
5905;BME280;2978;42.012;24.880;2023-04-08T02:11:52;99019.53;;;9.59;75.67
5905;BME280;2978;42.012;24.880;2023-04-08T02:14:17;99015.19;;;9.68;75.38
5905;BME280;2978;42.012;24.880;2023-04-08T02:16:53;99019.47;;;9.54;75.76
5905;BME280;2978;42.012;24.880;2023-04-08T02:19:26;99021.06;;;9.45;76.92
5905;BME280;2978;42.012;24.880;2023-04-08T02:22:05;99027.41;;;9.19;78.43
5905;BME280;2978;42.012;24.880;2023-04-08T02:24:34;99028.47;;;9.18;78.87
5905;BME280;2978;42.012;24.880;2023-04-08T02:27:01;99034.22;;;9.16;78.86
5905;BME280;2978;42.012;24.880;2023-04-08T02:29:30;99025.69;;;8.86;80.69
5905;BME280;2978;42.012;24.880;2023-04-08T02:31:57;99029.31;;;8.91;80.80
5905;BME280;2978;42.012;24.880;2023-04-08T02:34:25;99022.75;;;8.92;81.60
5905;BME280;2978;42.012;24.880;2023-04-08T02:36:51;99028.56;;;8.96;82.03
5905;BME280;2978;42.012;24.880;2023-04-08T02:39:16;99025.72;;;8.91;81.91
5905;BME280;2978;42.012;24.880;2023-04-08T02:41:42;99021.88;;;8.87;82.45
5905;BME280;2978;42.012;24.880;2023-04-08T02:44:08;99026.16;;;8.78;82.88
5905;BME280;2978;42.012;24.880;2023-04-08T02:46:34;99018.44;;;8.53;83.89
5905;BME280;2978;42.012;24.880;2023-04-08T02:48:59;99027.25;;;8.55;84.42
5905;BME280;2978;42.012;24.880;2023-04-08T02:51:25;99018.41;;;8.48;84.41
5905;BME280;2978;42.012;24.880;2023-04-08T02:53:52;99022.59;;;8.56;85.01
5905;BME280;2978;42.012;24.880;2023-04-08T02:56:17;99027.56;;;8.59;85.11
5905;BME280;2978;42.012;24.880;2023-04-08T02:58:43;99028.63;;;8.79;84.62
5905;BME280;2978;42.012;24.880;2023-04-08T03:01:08;99037.00;;;8.94;83.57
5905;BME280;2978;42.012;24.880;2023-04-08T03:03:33;99032.88;;;8.92;83.21
5905;BME280;2978;42.012;24.880;2023-04-08T03:05:59;99035.41;;;8.98;83.57
5905;BME280;2978;42.012;24.880;2023-04-08T03:08:24;99037.22;;;8.88;83.78
5905;BME280;2978;42.012;24.880;2023-04-08T03:10:50;99034.44;;;9.09;83.79
5905;BME280;2978;42.012;24.880;2023-04-08T03:13:16;99044.22;;;9.00;83.45
5905;BME280;2978;42.012;24.880;2023-04-08T03:15:41;99050.47;;;9.23;82.94
5905;BME280;2978;42.012;24.880;2023-04-08T03:18:07;99053.03;;;9.29;82.57
5905;BME280;2978;42.012;24.880;2023-04-08T03:20:33;99042.94;;;9.40;82.26
5905;BME280;2978;42.012;24.880;2023-04-08T03:22:59;99046.06;;;9.48;81.51
5905;BME280;2978;42.012;24.880;2023-04-08T03:25:24;99055.47;;;9.57;80.77
5905;BME280;2978;42.012;24.880;2023-04-08T03:27:50;99052.63;;;9.47;80.49
5905;BME280;2978;42.012;24.880;2023-04-08T03:30:15;99050.81;;;9.58;80.73
5905;BME280;2978;42.012;24.880;2023-04-08T03:32:41;99053.19;;;9.81;79.58
5905;BME280;2978;42.012;24.880;2023-04-08T03:35:07;99053.81;;;9.88;78.90
5905;BME280;2978;42.012;24.880;2023-04-08T03:37:32;99051.03;;;9.83;78.51
5905;BME280;2978;42.012;24.880;2023-04-08T03:39:58;99055.69;;;9.82;78.40
5905;BME280;2978;42.012;24.880;2023-04-08T03:42:23;99048.53;;;9.81;78.33
5905;BME280;2978;42.012;24.880;2023-04-08T03:44:49;99050.91;;;9.73;79.05
5905;BME280;2978;42.012;24.880;2023-04-08T03:47:14;99053.47;;;9.79;78.65
5905;BME280;2978;42.012;24.880;2023-04-08T03:49:40;99059.72;;;9.75;78.43
5905;BME280;2978;42.012;24.880;2023-04-08T03:52:05;99053.44;;;9.74;78.58
5905;BME280;2978;42.012;24.880;2023-04-08T03:54:31;99053.66;;;9.73;78.84
5905;BME280;2978;42.012;24.880;2023-04-08T03:56:56;99052.53;;;9.64;79.22
5905;BME280;2978;42.012;24.880;2023-04-08T03:59:22;99059.13;;;9.68;79.09
5905;BME280;2978;42.012;24.880;2023-04-08T04:01:47;99065.31;;;9.53;74.66
5905;BME280;2978;42.012;24.880;2023-04-08T04:04:13;99062.28;;;9.50;73.18
5905;BME280;2978;42.012;24.880;2023-04-08T04:06:38;99064.91;;;9.71;72.67
5905;BME280;2978;42.012;24.880;2023-04-08T04:09:04;99060.25;;;9.72;71.34
5905;BME280;2978;42.012;24.880;2023-04-08T04:11:29;99072.88;;;9.73;70.64
5905;BME280;2978;42.012;24.880;2023-04-08T04:13:55;99077.53;;;9.67;70.29
5905;BME280;2978;42.012;24.880;2023-04-08T04:16:20;99071.72;;;9.64;70.44
5905;BME280;2978;42.012;24.880;2023-04-08T04:18:46;99072.31;;;9.66;70.62
5905;BME280;2978;42.012;24.880;2023-04-08T04:21:12;99068.41;;;9.62;70.65
5905;BME280;2978;42.012;24.880;2023-04-08T04:23:37;99077.78;;;9.66;70.63
5905;BME280;2978;42.012;24.880;2023-04-08T04:26:09;99074.59;;;9.79;70.24
5905;BME280;2978;42.012;24.880;2023-04-08T04:28:34;99068.31;;;9.83;69.96
5905;BME280;2978;42.012;24.880;2023-04-08T04:31:00;99082.13;;;9.93;69.65
5905;BME280;2978;42.012;24.880;2023-04-08T04:33:25;99075.72;;;9.83;69.27
5905;BME280;2978;42.012;24.880;2023-04-08T04:35:51;99083.28;;;10.02;68.30
5905;BME280;2978;42.012;24.880;2023-04-08T04:38:17;99076.06;;;10.23;67.93
5905;BME280;2978;42.012;24.880;2023-04-08T04:40:42;99074.50;;;10.37;66.25
5905;BME280;2978;42.012;24.880;2023-04-08T04:43:08;99074.00;;;10.50;65.49
5905;BME280;2978;42.012;24.880;2023-04-08T04:45:34;99072.72;;;10.63;65.08
5905;BME280;2978;42.012;24.880;2023-04-08T04:47:59;99061.97;;;10.61;65.57
5905;BME280;2978;42.012;24.880;2023-04-08T04:50:25;99070.84;;;10.73;65.07
5905;BME280;2978;42.012;24.880;2023-04-08T04:52:50;99062.34;;;10.90;64.67
5905;BME280;2978;42.012;24.880;2023-04-08T04:55:15;99081.97;;;11.08;64.10
5905;BME280;2978;42.012;24.880;2023-04-08T04:57:41;99082.25;;;11.12;69.62
5905;BME280;2978;42.012;24.880;2023-04-08T05:00:09;99085.28;;;11.15;72.87
5905;BME280;2978;42.012;24.880;2023-04-08T05:02:35;99081.97;;;11.03;74.58
5905;BME280;2978;42.012;24.880;2023-04-08T05:05:00;99084.47;;;11.20;74.48
5905;BME280;2978;42.012;24.880;2023-04-08T05:07:26;99078.13;;;11.24;74.80
5905;BME280;2978;42.012;24.880;2023-04-08T05:09:52;99091.66;;;11.31;74.09
5905;BME280;2978;42.012;24.880;2023-04-08T05:12:18;99088.63;;;11.32;74.87
5905;BME280;2978;42.012;24.880;2023-04-08T05:14:45;99097.47;;;11.45;74.96
5905;BME280;2978;42.012;24.880;2023-04-08T05:17:10;99083.13;;;11.32;75.36
5905;BME280;2978;42.012;24.880;2023-04-08T05:19:36;99090.28;;;11.33;75.39
5905;BME280;2978;42.012;24.880;2023-04-08T05:22:01;99091.88;;;11.19;76.00
5905;BME280;2978;42.012;24.880;2023-04-08T05:24:27;99080.56;;;11.01;76.97
5905;BME280;2978;42.012;24.880;2023-04-08T05:26:52;99086.84;;;10.91;77.53
5905;BME280;2978;42.012;24.880;2023-04-08T05:29:18;99105.63;;;11.09;77.76
5905;BME280;2978;42.012;24.880;2023-04-08T05:31:44;99104.28;;;11.12;77.44
5905;BME280;2978;42.012;24.880;2023-04-08T05:34:09;99109.50;;;11.18;77.72
5905;BME280;2978;42.012;24.880;2023-04-08T05:36:35;99108.97;;;11.31;77.29
5905;BME280;2978;42.012;24.880;2023-04-08T05:39:01;99104.31;;;11.32;77.62
5905;BME280;2978;42.012;24.880;2023-04-08T05:41:26;99106.78;;;11.33;77.46
5905;BME280;2978;42.012;24.880;2023-04-08T05:43:52;99107.34;;;11.41;77.07
5905;BME280;2978;42.012;24.880;2023-04-08T05:46:17;99105.44;;;11.36;77.31
5905;BME280;2978;42.012;24.880;2023-04-08T05:48:43;99117.00;;;11.33;77.44
5905;BME280;2978;42.012;24.880;2023-04-08T05:51:15;99109.84;;;11.42;77.55
5905;BME280;2978;42.012;24.880;2023-04-08T05:53:42;99106.28;;;11.57;76.92
5905;BME280;2978;42.012;24.880;2023-04-08T05:56:07;99110.69;;;11.58;75.85
5905;BME280;2978;42.012;24.880;2023-04-08T05:58:32;99106.09;;;11.73;75.48
5905;BME280;2978;42.012;24.880;2023-04-08T06:01:04;99108.00;;;11.73;74.84
5905;BME280;2978;42.012;24.880;2023-04-08T06:03:31;99102.22;;;11.94;74.56
5905;BME280;2978;42.012;24.880;2023-04-08T06:05:57;99100.28;;;12.05;73.71
5905;BME280;2978;42.012;24.880;2023-04-08T06:08:22;99111.06;;;12.16;73.31
5905;BME280;2978;42.012;24.880;2023-04-08T06:10:49;99109.66;;;12.29;73.08
5905;BME280;2978;42.012;24.880;2023-04-08T06:13:28;99112.94;;;12.31;71.97
5905;BME280;2978;42.012;24.880;2023-04-08T06:15:53;99126.16;;;12.49;71.59
5905;BME280;2978;42.012;24.880;2023-04-08T06:18:19;99125.31;;;12.54;71.48
5905;BME280;2978;42.012;24.880;2023-04-08T06:20:44;99118.41;;;12.61;70.49
5905;BME280;2978;42.012;24.880;2023-04-08T06:23:10;99109.31;;;12.61;70.37
5905;BME280;2978;42.012;24.880;2023-04-08T06:25:36;99120.03;;;12.77;69.70
5905;BME280;2978;42.012;24.880;2023-04-08T06:28:02;99116.13;;;12.93;69.80
5905;BME280;2978;42.012;24.880;2023-04-08T06:30:27;99122.47;;;13.04;68.37
5905;BME280;2978;42.012;24.880;2023-04-08T06:32:53;99120.50;;;12.99;68.74
5905;BME280;2978;42.012;24.880;2023-04-08T06:35:18;99121.59;;;13.13;67.98
5905;BME280;2978;42.012;24.880;2023-04-08T06:37:43;99122.56;;;13.37;67.53
5905;BME280;2978;42.012;24.880;2023-04-08T06:40:09;99112.50;;;13.56;66.44
5905;BME280;2978;42.012;24.880;2023-04-08T06:42:35;99117.13;;;13.71;65.01
5905;BME280;2978;42.012;24.880;2023-04-08T06:45:03;99117.97;;;13.72;65.02
5905;BME280;2978;42.012;24.880;2023-04-08T06:47:29;99116.31;;;13.66;65.17
5905;BME280;2978;42.012;24.880;2023-04-08T06:49:55;99122.59;;;13.76;64.50
5905;BME280;2978;42.012;24.880;2023-04-08T06:52:20;99123.78;;;13.65;64.29
5905;BME280;2978;42.012;24.880;2023-04-08T06:54:45;99126.91;;;13.53;65.00
5905;BME280;2978;42.012;24.880;2023-04-08T06:57:11;99127.97;;;13.63;65.46
5905;BME280;2978;42.012;24.880;2023-04-08T06:59:36;99133.13;;;13.74;64.81
5905;BME280;2978;42.012;24.880;2023-04-08T07:02:02;99123.69;;;13.80;64.49
5905;BME280;2978;42.012;24.880;2023-04-08T07:04:27;99122.28;;;13.88;64.43
5905;BME280;2978;42.012;24.880;2023-04-08T07:06:53;99116.66;;;13.98;64.14
5905;BME280;2978;42.012;24.880;2023-04-08T07:09:18;99118.50;;;14.07;63.82
5905;BME280;2978;42.012;24.880;2023-04-08T07:11:44;99123.44;;;14.15;62.99
5905;BME280;2978;42.012;24.880;2023-04-08T07:14:10;99117.31;;;14.18;62.76
5905;BME280;2978;42.012;24.880;2023-04-08T07:16:36;99126.09;;;14.30;61.97
5905;BME280;2978;42.012;24.880;2023-04-08T07:19:01;99128.31;;;14.28;61.72
5905;BME280;2978;42.012;24.880;2023-04-08T07:21:26;99126.00;;;14.07;62.30
5905;BME280;2978;42.012;24.880;2023-04-08T07:23:52;99127.00;;;14.16;62.53
5905;BME280;2978;42.012;24.880;2023-04-08T07:26:17;99132.44;;;14.31;61.86
5905;BME280;2978;42.012;24.880;2023-04-08T07:28:43;99111.97;;;14.32;61.19
5905;BME280;2978;42.012;24.880;2023-04-08T07:33:35;99127.09;;;14.68;60.82
5905;BME280;2978;42.012;24.880;2023-04-08T07:36:00;99124.78;;;14.75;60.57
5905;BME280;2978;42.012;24.880;2023-04-08T07:38:26;99124.88;;;14.94;59.57
5905;BME280;2978;42.012;24.880;2023-04-08T07:40:52;99125.88;;;15.03;58.73
5905;BME280;2978;42.012;24.880;2023-04-08T07:43:17;99115.78;;;15.12;58.75
5905;BME280;2978;42.012;24.880;2023-04-08T07:45:43;99126.84;;;15.35;57.85
5905;BME280;2978;42.012;24.880;2023-04-08T07:48:08;99126.81;;;15.40;57.64
5905;BME280;2978;42.012;24.880;2023-04-08T07:50:35;99120.03;;;15.51;57.53
5905;BME280;2978;42.012;24.880;2023-04-08T07:53:01;99122.34;;;15.44;57.52
5905;BME280;2978;42.012;24.880;2023-04-08T07:55:27;99116.47;;;15.22;57.80
5905;BME280;2978;42.012;24.880;2023-04-08T07:57:52;99121.91;;;15.32;57.57
5905;BME280;2978;42.012;24.880;2023-04-08T08:00:18;99130.34;;;15.46;56.77
5905;BME280;2978;42.012;24.880;2023-04-08T08:02:46;99129.13;;;15.10;57.14
5905;BME280;2978;42.012;24.880;2023-04-08T08:05:12;99137.78;;;15.03;57.56
5905;BME280;2978;42.012;24.880;2023-04-08T08:07:37;99125.94;;;15.21;56.20
5905;BME280;2978;42.012;24.880;2023-04-08T08:10:03;99127.59;;;15.46;56.62
5905;BME280;2978;42.012;24.880;2023-04-08T08:12:29;99124.91;;;15.36;57.06
5905;BME280;2978;42.012;24.880;2023-04-08T08:14:54;99124.44;;;15.71;56.38
5905;BME280;2978;42.012;24.880;2023-04-08T08:17:23;99121.50;;;15.62;56.08
5905;BME280;2978;42.012;24.880;2023-04-08T08:19:55;99120.25;;;15.73;55.00
5905;BME280;2978;42.012;24.880;2023-04-08T08:22:21;99111.84;;;15.78;54.64
5905;BME280;2978;42.012;24.880;2023-04-08T08:24:46;99121.97;;;15.88;53.55
5905;BME280;2978;42.012;24.880;2023-04-08T08:27:12;99119.03;;;15.61;53.18
5905;BME280;2978;42.012;24.880;2023-04-08T08:29:37;99110.56;;;15.52;53.63
5905;BME280;2978;42.012;24.880;2023-04-08T08:32:03;99113.56;;;15.74;51.12
5905;BME280;2978;42.012;24.880;2023-04-08T08:34:29;99116.28;;;15.61;50.43
5905;BME280;2978;42.012;24.880;2023-04-08T08:36:54;99117.94;;;15.62;50.78
5905;BME280;2978;42.012;24.880;2023-04-08T08:39:20;99113.56;;;15.74;51.59
5905;BME280;2978;42.012;24.880;2023-04-08T08:41:46;99108.56;;;15.58;52.11
5905;BME280;2978;42.012;24.880;2023-04-08T08:44:11;99109.59;;;15.43;50.03
5905;BME280;2978;42.012;24.880;2023-04-08T08:46:42;99113.06;;;15.72;51.89
5905;BME280;2978;42.012;24.880;2023-04-08T08:49:08;99115.44;;;15.98;51.40
5905;BME280;2978;42.012;24.880;2023-04-08T08:51:34;99125.31;;;16.22;50.59
5905;BME280;2978;42.012;24.880;2023-04-08T08:54:03;99109.97;;;15.93;51.22
5905;BME280;2978;42.012;24.880;2023-04-08T08:56:29;99109.53;;;15.86;51.81
5905;BME280;2978;42.012;24.880;2023-04-08T08:58:54;99115.41;;;15.65;52.23
5905;BME280;2978;42.012;24.880;2023-04-08T09:04:28;99106.00;;;15.19;53.81
5905;BME280;2978;42.012;24.880;2023-04-08T09:07:10;99119.47;;;15.07;55.66
5905;BME280;2978;42.012;24.880;2023-04-08T09:09:48;99102.38;;;15.00;55.96
5905;BME280;2978;42.012;24.880;2023-04-08T09:12:14;99104.69;;;15.35;55.22
5905;BME280;2978;42.012;24.880;2023-04-08T09:14:40;99102.53;;;15.09;56.69
5905;BME280;2978;42.012;24.880;2023-04-08T09:17:05;99108.09;;;15.27;56.53
5905;BME280;2978;42.012;24.880;2023-04-08T09:19:30;99107.13;;;15.60;55.01
5905;BME280;2978;42.012;24.880;2023-04-08T09:24:31;99095.97;;;16.35;52.53
5905;BME280;2978;42.012;24.880;2023-04-08T09:26:57;99106.22;;;16.34;52.87
5905;BME280;2978;42.012;24.880;2023-04-08T09:29:23;99115.13;;;16.50;52.10
5905;BME280;2978;42.012;24.880;2023-04-08T09:31:57;99107.75;;;16.59;51.48
5905;BME280;2978;42.012;24.880;2023-04-08T09:34:23;99114.88;;;16.78;50.69
5905;BME280;2978;42.012;24.880;2023-04-08T09:36:50;99098.34;;;16.73;50.40
5905;BME280;2978;42.012;24.880;2023-04-08T09:39:16;99104.09;;;16.77;50.30
5905;BME280;2978;42.012;24.880;2023-04-08T09:41:42;99091.25;;;17.08;49.99
5905;BME280;2978;42.012;24.880;2023-04-08T09:44:09;99095.34;;;16.97;49.57
5905;BME280;2978;42.012;24.880;2023-04-08T09:49:30;99080.09;;;17.35;49.21
5905;BME280;2978;42.012;24.880;2023-04-08T09:52:10;99081.34;;;17.02;48.47
5905;BME280;2978;42.012;24.880;2023-04-08T09:57:12;99095.50;;;16.60;49.64
5905;BME280;2978;42.012;24.880;2023-04-08T09:59:44;99085.34;;;16.82;49.33
5905;BME280;2978;42.012;24.880;2023-04-08T10:02:18;99086.69;;;16.85;48.50
5905;BME280;2978;42.012;24.880;2023-04-08T10:04:47;99087.38;;;16.50;49.61
5905;BME280;2978;42.012;24.880;2023-04-08T10:07:16;99080.50;;;16.47;50.83
5905;BME280;2978;42.012;24.880;2023-04-08T10:09:43;99076.84;;;16.33;50.90
5905;BME280;2978;42.012;24.880;2023-04-08T10:12:09;99088.22;;;16.64;50.93
5905;BME280;2978;42.012;24.880;2023-04-08T10:14:34;99084.97;;;16.89;49.63
5905;BME280;2978;42.012;24.880;2023-04-08T10:17:25;99081.88;;;17.04;49.09
5905;BME280;2978;42.012;24.880;2023-04-08T10:20:00;99069.41;;;17.15;48.76
5905;BME280;2978;42.012;24.880;2023-04-08T10:27:55;99066.44;;;17.96;46.32
5905;BME280;2978;42.012;24.880;2023-04-08T10:32:55;99067.88;;;17.72;46.93
5905;BME280;2978;42.012;24.880;2023-04-08T10:35:38;99060.88;;;17.96;46.03
5905;BME280;2978;42.012;24.880;2023-04-08T10:38:08;99063.78;;;17.91;46.04
5905;BME280;2978;42.012;24.880;2023-04-08T10:40:37;99065.06;;;18.08;45.74
5905;BME280;2978;42.012;24.880;2023-04-08T10:43:03;99065.94;;;18.17;45.11
5905;BME280;2978;42.012;24.880;2023-04-08T10:45:32;99058.53;;;18.12;45.03
5905;BME280;2978;42.012;24.880;2023-04-08T10:48:30;99054.28;;;18.37;44.71
5905;BME280;2978;42.012;24.880;2023-04-08T10:50:59;99050.63;;;18.28;44.13
5905;BME280;2978;42.012;24.880;2023-04-08T10:55:51;99051.63;;;17.87;45.42
5905;BME280;2978;42.012;24.880;2023-04-08T10:58:16;99052.22;;;17.76;46.32
5905;BME280;2978;42.012;24.880;2023-04-08T11:00:42;99055.56;;;17.86;45.89
5905;BME280;2978;42.012;24.880;2023-04-08T11:03:09;99046.47;;;17.72;46.34
5905;BME280;2978;42.012;24.880;2023-04-08T11:05:35;99049.81;;;17.83;46.25
5905;BME280;2978;42.012;24.880;2023-04-08T11:08:01;99040.06;;;17.94;46.33
5905;BME280;2978;42.012;24.880;2023-04-08T11:10:27;99040.22;;;18.11;46.06
5905;BME280;2978;42.012;24.880;2023-04-08T11:12:56;99046.66;;;18.42;45.16
5905;BME280;2978;42.012;24.880;2023-04-08T11:15:25;99039.59;;;18.75;44.41
5905;BME280;2978;42.012;24.880;2023-04-08T11:17:53;99025.72;;;18.84;43.59
5905;BME280;2978;42.012;24.880;2023-04-08T11:20:19;99029.84;;;18.95;43.55
5905;BME280;2978;42.012;24.880;2023-04-08T11:22:46;99030.88;;;19.16;43.06
5905;BME280;2978;42.012;24.880;2023-04-08T11:25:11;99025.34;;;18.77;44.37
5905;BME280;2978;42.012;24.880;2023-04-08T11:27:38;99018.84;;;18.51;44.72
5905;BME280;2978;42.012;24.880;2023-04-08T11:30:05;99022.72;;;18.72;44.60
5905;BME280;2978;42.012;24.880;2023-04-08T11:32:31;99012.78;;;18.88;43.92
5905;BME280;2978;42.012;24.880;2023-04-08T11:35:00;99026.59;;;18.62;44.72
5905;BME280;2978;42.012;24.880;2023-04-08T11:37:35;99009.91;;;18.71;44.91
5905;BME280;2978;42.012;24.880;2023-04-08T11:40:01;99007.06;;;18.54;45.36
5905;BME280;2978;42.012;24.880;2023-04-08T11:42:31;99005.00;;;18.68;45.00
5905;BME280;2978;42.012;24.880;2023-04-08T11:44:57;98997.41;;;19.07;44.14
5905;BME280;2978;42.012;24.880;2023-04-08T11:47:32;98996.16;;;19.39;43.52
5905;BME280;2978;42.012;24.880;2023-04-08T11:49:58;98992.56;;;19.39;43.30
5905;BME280;2978;42.012;24.880;2023-04-08T11:55:09;98996.44;;;18.56;45.28
5905;BME280;2978;42.012;24.880;2023-04-08T11:57:36;98984.09;;;18.18;46.85
5905;BME280;2978;42.012;24.880;2023-04-08T12:00:03;98984.91;;;18.18;47.17
5905;BME280;2978;42.012;24.880;2023-04-08T12:02:30;98980.47;;;18.17;46.88
5905;BME280;2978;42.012;24.880;2023-04-08T12:04:55;98975.69;;;18.40;46.49
5905;BME280;2978;42.012;24.880;2023-04-08T12:07:20;98978.94;;;18.33;46.19
5905;BME280;2978;42.012;24.880;2023-04-08T12:09:46;98967.53;;;18.43;46.07
5905;BME280;2978;42.012;24.880;2023-04-08T12:12:11;98972.84;;;18.31;46.21
5905;BME280;2978;42.012;24.880;2023-04-08T12:14:37;98976.06;;;18.47;46.14
5905;BME280;2978;42.012;24.880;2023-04-08T12:17:02;98966.00;;;18.68;45.80
5905;BME280;2978;42.012;24.880;2023-04-08T12:19:28;98960.31;;;18.90;45.67
5905;BME280;2978;42.012;24.880;2023-04-08T12:21:53;98960.03;;;19.08;45.18
5905;BME280;2978;42.012;24.880;2023-04-08T12:24:18;98962.91;;;18.39;46.29
5905;BME280;2978;42.012;24.880;2023-04-08T12:26:45;98953.41;;;18.40;46.49
5905;BME280;2978;42.012;24.880;2023-04-08T12:29:10;98951.22;;;18.59;45.94
5905;BME280;2978;42.012;24.880;2023-04-08T12:31:36;98955.47;;;18.48;46.46
5905;BME280;2978;42.012;24.880;2023-04-08T12:34:01;98947.75;;;18.53;47.10
5905;BME280;2978;42.012;24.880;2023-04-08T12:36:27;98948.06;;;18.43;46.78
5905;BME280;2978;42.012;24.880;2023-04-08T12:41:56;98936.16;;;18.29;46.87
5905;BME280;2978;42.012;24.880;2023-04-08T12:44:22;98932.44;;;18.34;46.93
5905;BME280;2978;42.012;24.880;2023-04-08T12:46:47;98927.84;;;18.38;46.73
5905;BME280;2978;42.012;24.880;2023-04-08T12:49:13;98929.81;;;18.29;47.24
5905;BME280;2978;42.012;24.880;2023-04-08T12:51:38;98924.00;;;18.17;47.86
5905;BME280;2978;42.012;24.880;2023-04-08T12:54:04;98923.69;;;18.18;46.86
5905;BME280;2978;42.012;24.880;2023-04-08T12:56:31;98923.34;;;18.11;46.77
5905;BME280;2978;42.012;24.880;2023-04-08T12:58:57;98927.69;;;18.04;48.09
5905;BME280;2978;42.012;24.880;2023-04-08T13:01:23;98933.03;;;17.91;48.73
5905;BME280;2978;42.012;24.880;2023-04-08T13:03:48;98913.53;;;17.61;50.22
5905;BME280;2978;42.012;24.880;2023-04-08T13:06:14;98922.94;;;17.29;51.14
5905;BME280;2978;42.012;24.880;2023-04-08T13:08:39;98917.34;;;17.07;53.01
5905;BME280;2978;42.012;24.880;2023-04-08T13:11:06;98918.53;;;16.79;52.94
5905;BME280;2978;42.012;24.880;2023-04-08T13:13:32;98921.47;;;16.47;51.25
5905;BME280;2978;42.012;24.880;2023-04-08T13:15:57;98918.38;;;16.35;51.04
5905;BME280;2978;42.012;24.880;2023-04-08T13:18:23;98909.63;;;16.14;51.45
5905;BME280;2978;42.012;24.880;2023-04-08T13:20:48;98902.72;;;16.12;52.14
5905;BME280;2978;42.012;24.880;2023-04-08T13:23:13;98907.06;;;16.18;53.08
5905;BME280;2978;42.012;24.880;2023-04-08T13:25:42;98913.22;;;16.28;50.18
5905;BME280;2978;42.012;24.880;2023-04-08T13:28:07;98912.41;;;16.28;50.67
5905;BME280;2978;42.012;24.880;2023-04-08T13:30:33;98903.16;;;16.05;48.75
5905;BME280;2978;42.012;24.880;2023-04-08T13:32:58;98908.25;;;15.85;48.93
5905;BME280;2978;42.012;24.880;2023-04-08T13:35:24;98888.31;;;15.69;47.92
5905;BME280;2978;42.012;24.880;2023-04-08T13:37:49;98906.88;;;15.55;49.59
5905;BME280;2978;42.012;24.880;2023-04-08T13:40:15;98910.00;;;15.48;51.16
5905;BME280;2978;42.012;24.880;2023-04-08T13:42:40;98912.09;;;15.38;53.03
5905;BME280;2978;42.012;24.880;2023-04-08T13:45:06;98912.88;;;15.43;56.66